الصفحة الرئيسية
METAR-TAF:

METAR-TAF

مطار :

Akron, كولورادو, الولايات المتحدة

دائرة عرض: 40-10-28N, خط طول: 103-12-52W, ارتفاع: 1431 متر

مراقبة الطقس الحالي

تاريخ ووقت الإصدار 13 دقيقة قبل الساعة 18:53UTC
ريح 10 عقدة من الشرق/الشمال الشرقي تتزايد حتى 17 عقدة, الاتجاه يتراوح بين الشمال الشرقي و الشرق/الجنوب الشرقي
درجة الحرارة 26°درجة مئوية
الرطوبة 45%
ضغط 1020 hPa
الرؤية: 16.1 كم
غيوم قليلة على ارتفاع 4800 قدم

METAR: KAKO 141853Z AUTO 06010G17KT 050V110 10SM FEW048 26/13 A3011 RMK AO2 SLP139 T02610133

زمن: 13:06 (19:06 UTC)


TAF: مفقودة

أرصاد الطقس والتوقعات من أكثر من 4000 مطار (تقارير الطقس للمطار METAR والتنبؤ بالطقس بالمطارTAF).

المحطات المتاحة هي النقط الصفراء والحمراء على الخريطة.

حرك المؤشر فوق النقطة لمعرفة اسم المحطة.

ثم انقر لمعرفة أرصاد وتوقعات الطقس.

لتغيير الخارطة: اضغط على الأزرار الخضراء مع رمز الصليب الأسود للتكبير. على الزر الأخضر مع شرطة للتصغير، أو على الأسهم الخضراء للخرائط المجاورة.


METAR-TAF: